createdAt,value
2018-04-14T00:00:05.072Z,39.1
2018-04-14T00:00:55.240Z,39.1
2018-04-14T00:01:46.039Z,39.1
2018-04-14T00:02:36.104Z,39.1
2018-04-14T00:03:26.181Z,39.1
2018-04-14T00:04:16.257Z,39
2018-04-14T00:05:06.307Z,39
2018-04-14T00:05:56.061Z,39
2018-04-14T00:06:45.885Z,39
2018-04-14T00:07:35.627Z,39
2018-04-14T00:08:26.264Z,39
2018-04-14T00:09:16.316Z,39
2018-04-14T00:10:06.679Z,39
2018-04-14T00:10:56.839Z,39
2018-04-14T00:11:46.806Z,39
2018-04-14T00:12:35.846Z,39
2018-04-14T00:13:26.932Z,38.9
2018-04-14T00:14:16.433Z,39
2018-04-14T00:15:06.504Z,39
2018-04-14T00:15:56.879Z,38.9
2018-04-14T00:16:46.627Z,38.9
2018-04-14T00:17:36.987Z,38.9
2018-04-14T00:18:27.024Z,38.9
2018-04-14T00:19:17.427Z,38.9
2018-04-14T00:20:06.321Z,38.9
2018-04-14T00:20:56.912Z,38.9
2018-04-14T00:21:47.280Z,38.9
2018-04-14T00:22:37.359Z,38.9
2018-04-14T00:23:27.122Z,38.9
2018-04-14T00:24:17.486Z,38.9
2018-04-14T00:25:07.846Z,38.9
2018-04-14T00:25:57.902Z,38.9
2018-04-14T00:26:47.385Z,38.9
2018-04-14T00:27:37.213Z,38.9
2018-04-14T00:28:26.978Z,38.9
2018-04-14T00:29:18.124Z,38.9
2018-04-14T00:30:07.930Z,38.9
2018-04-14T00:30:58.239Z,38.9
2018-04-14T00:31:47.756Z,38.9
2018-04-14T00:32:38.407Z,38.9
2018-04-14T00:33:28.457Z,38.9
2018-04-14T00:34:18.515Z,38.9
2018-04-14T00:35:08.009Z,38.8
2018-04-14T00:35:57.815Z,38.8
2018-04-14T00:36:48.459Z,38.9
2018-04-14T00:37:38.476Z,38.8
2018-04-14T00:38:28.554Z,38.8
2018-04-14T00:39:18.021Z,38.8
2018-04-14T00:40:08.948Z,38.8
2018-04-14T00:40:58.481Z,38.8
2018-04-14T00:41:48.263Z,38.8
2018-04-14T00:42:38.851Z,38.8
2018-04-14T00:43:28.635Z,38.8
2018-04-14T00:44:19.281Z,38.8
2018-04-14T00:45:09.073Z,38.8
2018-04-14T00:45:59.118Z,38.8
2018-04-14T00:46:49.157Z,38.8
2018-04-14T00:47:39.223Z,38.8
2018-04-14T00:48:29.326Z,38.8
2018-04-14T00:49:19.083Z,38.8
2018-04-14T00:50:09.478Z,38.8
2018-04-14T00:50:59.483Z,38.8
2018-04-14T00:51:49.860Z,38.8
2018-04-14T00:52:39.351Z,38.8
2018-04-14T00:53:29.678Z,38.7
2018-04-14T00:54:19.193Z,38.7
2018-04-14T00:55:09.792Z,38.7
2018-04-14T00:55:59.917Z,38.7
2018-04-14T00:56:50.232Z,38.7
2018-04-14T00:57:40.340Z,38.7
2018-04-14T00:58:29.506Z,38.7
2018-04-14T00:59:20.141Z,38.7
2018-04-14T01:00:10.456Z,38.7
2018-04-14T01:01:00.534Z,38.7
2018-04-14T01:01:50.341Z,38.7
2018-04-14T01:02:40.654Z,38.7
2018-04-14T01:03:30.462Z,38.7
2018-04-14T01:04:20.801Z,38.7
2018-04-14T01:05:10.562Z,38.6
2018-04-14T01:06:00.100Z,38.7
2018-04-14T01:06:50.705Z,38.6
2018-04-14T01:07:40.820Z,38.6
2018-04-14T01:08:30.564Z,38.6
2018-04-14T01:09:20.626Z,38.6
2018-04-14T01:10:11.250Z,38.6
2018-04-14T01:11:00.495Z,38.6
2018-04-14T01:11:50.253Z,38.6
2018-04-14T01:12:40.581Z,38.6
2018-04-14T01:13:30.973Z,38.6
2018-04-14T01:14:21.563Z,38.6
2018-04-14T01:15:10.778Z,38.6
2018-04-14T01:16:01.172Z,38.6
2018-04-14T01:16:50.930Z,38.6
2018-04-14T01:17:41.562Z,38.6
2018-04-14T01:18:31.323Z,38.6
2018-04-14T01:19:21.660Z,38.6
2018-04-14T01:20:11.692Z,38.6
2018-04-14T01:21:01.815Z,38.6
2018-04-14T01:21:52.112Z,38.6
2018-04-14T01:22:42.471Z,38.6
2018-04-14T01:23:31.147Z,38.6
2018-04-14T01:24:22.322Z,38.6
2018-04-14T01:25:12.372Z,38.5
2018-04-14T01:26:02.465Z,38.5
2018-04-14T01:26:52.000Z,38.5
2018-04-14T01:27:42.055Z,38.6
2018-04-14T01:28:31.527Z,38.5
2018-04-14T01:29:22.412Z,38.5
2018-04-14T01:30:11.905Z,38.5
2018-04-14T01:31:02.872Z,38.5
2018-04-14T01:31:52.086Z,38.5
2018-04-14T01:32:42.112Z,38.5
2018-04-14T01:33:33.046Z,38.5
2018-04-14T01:34:22.803Z,38.4
2018-04-14T01:35:12.016Z,38.5
2018-04-14T01:36:02.692Z,38.4
2018-04-14T01:36:52.758Z,38.4
2018-04-14T01:37:42.579Z,38.4
2018-04-14T01:38:32.821Z,38.4
2018-04-14T01:39:22.336Z,38.4
2018-04-14T01:40:13.559Z,38.4
2018-04-14T01:41:02.759Z,38.4
2018-04-14T01:41:53.406Z,38.4
2018-04-14T01:42:42.896Z,38.4
2018-04-14T01:43:33.243Z,38.4
2018-04-14T01:44:23.549Z,38.4
2018-04-14T01:45:13.903Z,38.4
2018-04-14T01:46:03.716Z,38.4
2018-04-14T01:46:53.201Z,38.4
2018-04-14T01:47:43.515Z,38.4
2018-04-14T01:48:33.870Z,38.4
2018-04-14T01:49:23.378Z,38.4
2018-04-14T01:50:13.717Z,38.4
2018-04-14T01:51:03.530Z,38.4
2018-04-14T01:51:54.434Z,38.4
2018-04-14T01:52:44.478Z,38.4
2018-04-14T01:53:34.003Z,38.4
2018-04-14T01:54:24.325Z,38.4
2018-04-14T01:55:14.393Z,38.4
2018-04-14T01:56:04.782Z,38.3
2018-04-14T01:56:54.253Z,38.4
2018-04-14T01:57:44.020Z,38.3
2018-04-14T01:58:34.936Z,38.4
2018-04-14T01:59:25.028Z,38.3
2018-04-14T02:00:14.503Z,38.3
2018-04-14T02:01:04.592Z,38.3
2018-04-14T02:01:54.617Z,38.3
2018-04-14T02:02:44.412Z,38.3
2018-04-14T02:03:34.735Z,38.3
2018-04-14T02:04:25.109Z,38.3
2018-04-14T02:05:14.605Z,38.3
2018-04-14T02:06:05.247Z,38.3
2018-04-14T02:06:55.003Z,38.3
2018-04-14T02:07:44.766Z,38.3
2018-04-14T02:08:34.829Z,38.3
2018-04-14T02:09:24.927Z,38.3
2018-04-14T02:10:15.586Z,38.3
2018-04-14T02:11:05.030Z,38.3
2018-04-14T02:11:55.887Z,38.3
2018-04-14T02:12:45.729Z,38.3
2018-04-14T02:13:35.214Z,38.3
2018-04-14T02:14:25.838Z,38.3
2018-04-14T02:15:14.796Z,38.2
2018-04-14T02:16:05.409Z,38.3
2018-04-14T02:16:56.334Z,38.3
2018-04-14T02:17:45.228Z,38.2
2018-04-14T02:18:36.502Z,38.2
2018-04-14T02:19:26.614Z,38.2
2018-04-14T02:20:15.732Z,38.2
2018-04-14T02:21:06.375Z,38.2
2018-04-14T02:21:56.659Z,38.2
2018-04-14T02:22:46.479Z,38.2
2018-04-14T02:23:36.578Z,38.2
2018-04-14T02:24:26.674Z,38.2
2018-04-14T02:25:16.106Z,38.2
2018-04-14T02:26:06.463Z,38.2
2018-04-14T02:26:56.858Z,38.2
2018-04-14T02:27:46.555Z,38.2
2018-04-14T02:28:37.179Z,38.2
2018-04-14T02:29:26.423Z,38.1
2018-04-14T02:30:16.816Z,38.1
2018-04-14T02:31:07.408Z,38.1
2018-04-14T02:31:56.890Z,38.1
2018-04-14T02:32:47.255Z,38.1
2018-04-14T02:33:37.333Z,38.1
2018-04-14T02:34:26.813Z,38.1
2018-04-14T02:35:17.740Z,38.1
2018-04-14T02:36:07.547Z,38.1
2018-04-14T02:36:57.601Z,38.1
2018-04-14T02:37:47.376Z,38.1
2018-04-14T02:38:38.043Z,38.1
2018-04-14T02:39:27.505Z,38.1
2018-04-14T02:40:18.182Z,38.1
2018-04-14T02:41:08.193Z,38.1
2018-04-14T02:41:57.682Z,38.1
2018-04-14T02:42:47.996Z,38.1
2018-04-14T02:43:37.532Z,38.1
2018-04-14T02:44:27.646Z,38.1
2018-04-14T02:45:17.935Z,38.1
2018-04-14T02:46:08.005Z,38.1
2018-04-14T02:46:58.667Z,38.1
2018-04-14T02:47:48.420Z,38.1
2018-04-14T02:48:37.937Z,38.1
2018-04-14T02:49:28.845Z,38.1
2018-04-14T02:50:18.890Z,38
2018-04-14T02:51:08.395Z,38
2018-04-14T02:51:58.692Z,38
2018-04-14T02:52:48.496Z,38
2018-04-14T02:53:38.282Z,38
2018-04-14T02:54:28.636Z,38
2018-04-14T02:55:18.977Z,38
2018-04-14T02:56:08.806Z,38
2018-04-14T02:56:58.846Z,38
2018-04-14T02:57:49.154Z,38
2018-04-14T02:58:38.661Z,38
2018-04-14T02:59:28.711Z,38
2018-04-14T03:00:19.346Z,38
2018-04-14T03:01:09.101Z,37.9
2018-04-14T03:01:59.776Z,38
2018-04-14T03:02:48.964Z,38
2018-04-14T03:03:39.619Z,38
2018-04-14T03:04:30.000Z,37.9
2018-04-14T03:05:19.993Z,37.9
2018-04-14T03:06:09.772Z,37.9
2018-04-14T03:06:59.263Z,37.9
2018-04-14T03:07:49.061Z,37.9
2018-04-14T03:08:39.431Z,37.9
2018-04-14T03:09:29.821Z,37.9
2018-04-14T03:10:20.822Z,37.9
2018-04-14T03:11:09.611Z,37.9
2018-04-14T03:12:00.218Z,37.9
2018-04-14T03:12:50.381Z,37.9
2018-04-14T03:13:40.374Z,37.9
2018-04-14T03:14:30.723Z,37.9
2018-04-14T03:15:20.490Z,37.9
2018-04-14T03:16:10.320Z,37.9
2018-04-14T03:17:00.573Z,37.9
2018-04-14T03:17:50.737Z,37.9
2018-04-14T03:18:40.424Z,37.9
2018-04-14T03:19:30.780Z,37.9
2018-04-14T03:20:20.284Z,37.9
2018-04-14T03:21:10.622Z,37.9
2018-04-14T03:22:00.143Z,37.9
2018-04-14T03:22:50.500Z,37.9
2018-04-14T03:23:40.537Z,37.9
2018-04-14T03:24:31.497Z,37.9
2018-04-14T03:25:21.354Z,37.8
2018-04-14T03:26:11.567Z,37.8
2018-04-14T03:27:01.075Z,37.8
2018-04-14T03:27:51.398Z,37.8
2018-04-14T03:28:41.491Z,37.8
2018-04-14T03:29:31.554Z,37.8
2018-04-14T03:30:20.479Z,37.8
2018-04-14T03:31:11.745Z,37.8
2018-04-14T03:32:01.144Z,37.8
2018-04-14T03:32:51.800Z,37.8
2018-04-14T03:33:41.842Z,37.8
2018-04-14T03:34:31.661Z,37.8
2018-04-14T03:35:21.733Z,37.8
2018-04-14T03:36:12.302Z,37.8
2018-04-14T03:37:02.378Z,37.8
2018-04-14T03:37:52.163Z,37.8
2018-04-14T03:38:41.953Z,37.8
2018-04-14T03:39:31.998Z,37.8
2018-04-14T03:40:22.091Z,37.8
2018-04-14T03:41:12.148Z,37.7
2018-04-14T03:42:02.528Z,37.8
2018-04-14T03:42:52.802Z,37.8
2018-04-14T03:43:42.046Z,37.8
2018-04-14T03:44:32.697Z,37.8
2018-04-14T03:45:22.727Z,37.8
2018-04-14T03:46:13.092Z,37.8
2018-04-14T03:47:03.363Z,37.7
2018-04-14T03:47:52.926Z,37.7
2018-04-14T03:48:42.948Z,37.7
2018-04-14T03:49:32.816Z,37.7
2018-04-14T03:50:23.170Z,37.7
2018-04-14T03:51:12.888Z,37.7
2018-04-14T03:52:02.697Z,37.7
2018-04-14T03:52:53.350Z,37.7
2018-04-14T03:53:43.652Z,37.7
2018-04-14T03:54:33.193Z,37.7
2018-04-14T03:55:23.507Z,37.7
2018-04-14T03:56:13.902Z,37.6
2018-04-14T03:57:03.080Z,37.6
2018-04-14T03:57:53.408Z,37.6
2018-04-14T03:58:43.509Z,37.6
2018-04-14T03:59:34.087Z,37.6
2018-04-14T04:00:23.584Z,37.6
2018-04-14T04:01:13.962Z,37.6
2018-04-14T04:02:03.756Z,37.6
2018-04-14T04:02:54.312Z,37.6
2018-04-14T04:03:44.429Z,37.6
2018-04-14T04:04:34.482Z,37.6
2018-04-14T04:05:24.286Z,37.6
2018-04-14T04:06:14.330Z,37.6
2018-04-14T04:07:03.796Z,37.6
2018-04-14T04:07:54.722Z,37.6
2018-04-14T04:08:44.592Z,37.6
2018-04-14T04:09:34.857Z,37.6
2018-04-14T04:10:24.372Z,37.6
2018-04-14T04:11:14.964Z,37.6
2018-04-14T04:12:05.031Z,37.6
2018-04-14T04:12:55.127Z,37.6
2018-04-14T04:13:45.181Z,37.6
2018-04-14T04:14:34.414Z,37.6
2018-04-14T04:15:25.006Z,37.6
2018-04-14T04:16:15.416Z,37.6
2018-04-14T04:17:04.574Z,37.5
2018-04-14T04:17:54.941Z,37.5
2018-04-14T04:18:45.271Z,37.5
2018-04-14T04:19:35.645Z,37.5
2018-04-14T04:20:25.674Z,37.5
2018-04-14T04:21:15.761Z,37.5
2018-04-14T04:22:05.796Z,37.5
2018-04-14T04:22:55.883Z,37.5
2018-04-14T04:23:45.666Z,37.5
2018-04-14T04:24:35.121Z,37.5
2018-04-14T04:25:25.778Z,37.5
2018-04-14T04:26:16.113Z,37.5
2018-04-14T04:27:06.173Z,37.5
2018-04-14T04:27:55.411Z,37.5
2018-04-14T04:28:46.004Z,37.5
2018-04-14T04:29:36.366Z,37.5
2018-04-14T04:30:26.135Z,37.4
2018-04-14T04:31:16.208Z,37.4
2018-04-14T04:32:06.285Z,37.4
2018-04-14T04:32:55.519Z,37.4
2018-04-14T04:33:46.392Z,37.4
2018-04-14T04:34:36.215Z,37.4
2018-04-14T04:35:26.801Z,37.4
2018-04-14T05:24:10.756Z,37.1
2018-04-14T05:25:01.156Z,37.1
2018-04-14T05:25:51.247Z,37.1
2018-04-14T05:26:41.270Z,37.1
2018-04-14T05:27:31.903Z,37.1
2018-04-14T05:28:21.380Z,37.1
2018-04-14T05:29:11.989Z,37.1
2018-04-14T05:30:01.791Z,37.1
2018-04-14T05:30:51.619Z,37.1
2018-04-14T05:31:41.612Z,37.1
2018-04-14T05:32:31.983Z,37.1
2018-04-14T05:33:22.032Z,37.1
2018-04-14T05:34:12.092Z,37.1
2018-04-14T05:35:02.223Z,37
2018-04-14T05:35:51.947Z,37
2018-04-14T05:36:42.270Z,37
2018-04-14T05:37:33.236Z,37
2018-04-14T05:38:22.715Z,37
2018-04-14T05:39:11.329Z,37
2018-04-14T05:40:02.297Z,37
2018-04-14T05:40:52.330Z,36.9
2018-04-14T05:41:42.410Z,36.9
2018-04-14T05:42:32.164Z,36.9
2018-04-14T05:43:22.547Z,36.9
2018-04-14T05:44:13.101Z,36.8
2018-04-14T05:45:02.610Z,36.8
2018-04-14T05:45:52.692Z,36.6
2018-04-14T05:46:42.181Z,36.6
2018-04-14T05:47:33.103Z,36.5
2018-04-14T05:48:22.895Z,36.4
2018-04-14T05:49:12.975Z,36.4
2018-04-14T05:50:03.292Z,36.3
2018-04-14T05:50:52.697Z,33.3
2018-04-14T05:51:43.149Z,27.9
2018-04-14T05:52:33.232Z,33
2018-04-14T05:53:23.034Z,34.1
2018-04-14T05:54:12.546Z,31.7
2018-04-14T05:55:02.839Z,30.2
2018-04-14T05:55:54.011Z,29.4
2018-04-14T05:56:44.084Z,29.1
2018-04-14T05:57:33.052Z,28.7
2018-04-14T05:58:24.238Z,28.9
2018-04-14T05:59:13.993Z,31.3
2018-04-14T06:00:04.056Z,32.6
2018-04-14T06:00:53.549Z,33.2
2018-04-14T06:01:43.618Z,33.2
2018-04-14T06:02:34.015Z,32.9
2018-04-14T06:03:24.292Z,32.8
2018-04-14T06:04:13.547Z,32.9
2018-04-14T06:05:03.591Z,33.2
2018-04-14T06:05:53.938Z,33.3
2018-04-14T06:06:44.592Z,33.2
2018-04-14T06:07:34.645Z,33
2018-04-14T06:08:24.979Z,32.9
2018-04-14T06:09:15.122Z,32.9
2018-04-14T06:10:04.255Z,33
2018-04-14T06:10:55.163Z,33.1
2018-04-14T06:11:44.675Z,33.3
2018-04-14T06:12:34.710Z,33.3
2018-04-14T06:13:24.797Z,33.4
2018-04-14T06:14:15.130Z,33.6
2018-04-14T06:15:05.337Z,33.7
2018-04-14T06:15:55.513Z,33.9
2018-04-14T06:16:45.340Z,34
2018-04-14T06:17:35.642Z,34.1
2018-04-14T06:18:25.697Z,34.3
2018-04-14T06:19:14.944Z,34.4
2018-04-14T06:20:06.002Z,34.6
2018-04-14T06:20:55.340Z,34.8
2018-04-14T06:21:45.690Z,34.9
2018-04-14T06:22:35.757Z,35
2018-04-14T06:23:26.085Z,35.1
2018-04-14T06:24:15.311Z,35.3
2018-04-14T06:25:05.974Z,35.4
2018-04-14T06:25:56.279Z,35.4
2018-04-14T06:26:46.095Z,35.6
2018-04-14T06:27:36.131Z,35.6
2018-04-14T06:28:26.451Z,35.8
2018-04-14T06:29:16.036Z,35.9
2018-04-14T06:30:06.584Z,36.1
2018-04-14T06:30:56.688Z,36.3
2018-04-14T06:31:46.459Z,36.4
2018-04-14T06:32:37.168Z,36.6
2018-04-14T06:33:26.854Z,36.8
2018-04-14T06:34:16.368Z,36.9
2018-04-14T06:35:06.161Z,37.1
2018-04-14T06:35:56.523Z,37.3
2018-04-14T06:36:46.853Z,37.4
2018-04-14T06:37:36.921Z,37.6
2018-04-14T06:38:26.480Z,37.8
2018-04-14T06:39:17.037Z,38
2018-04-14T06:40:06.571Z,38.1
2018-04-14T06:40:56.953Z,38.2
2018-04-14T06:41:46.436Z,38.3
2018-04-14T06:42:37.163Z,38.6
2018-04-14T06:43:27.594Z,38.8
2018-04-14T06:44:16.862Z,39
2018-04-14T06:45:06.986Z,39.1
2018-04-14T06:45:57.825Z,39.3
2018-04-14T06:46:47.864Z,39.5
2018-04-14T06:47:37.099Z,39.7
2018-04-14T06:48:27.494Z,39.9
2018-04-14T06:49:16.994Z,40.1
2018-04-14T06:50:06.907Z,40.3
2018-04-14T06:50:56.564Z,40.4
2018-04-14T06:51:47.709Z,40.6
2018-04-14T06:52:38.292Z,40.8
2018-04-14T06:53:28.120Z,40.9
2018-04-14T06:54:17.317Z,40.9
2018-04-14T06:55:07.747Z,40.9
2018-04-14T06:55:58.607Z,40.8
2018-04-14T06:56:48.106Z,40.6
2018-04-14T06:57:38.413Z,40.5
2018-04-14T06:58:28.769Z,40.4
2018-04-14T06:59:18.892Z,40.2
2018-04-14T07:00:08.055Z,39.9
2018-04-14T07:00:58.698Z,39.8
2018-04-14T07:01:48.999Z,39.9
2018-04-14T07:02:38.834Z,40.1
2018-04-14T07:03:28.576Z,40.3
2018-04-14T07:04:19.012Z,40.4
2018-04-14T07:05:09.019Z,40.5
2018-04-14T07:05:58.788Z,40.7
2018-04-14T07:06:48.874Z,40.9
2018-04-14T07:07:38.984Z,41.1
2018-04-14T07:08:28.972Z,41.2
2018-04-14T07:09:19.333Z,41.3
2018-04-14T07:10:09.400Z,41.4
2018-04-14T07:10:59.711Z,41.6
2018-04-14T07:11:49.213Z,41.8
2018-04-14T07:12:39.836Z,41.9
2018-04-14T07:13:29.091Z,42.1
2018-04-14T07:14:19.154Z,42.3
2018-04-14T07:15:08.719Z,42.5
2018-04-14T07:15:59.548Z,42.7
2018-04-14T07:16:49.924Z,42.9
2018-04-14T07:17:39.706Z,43.1
2018-04-14T07:18:30.038Z,43.3
2018-04-14T07:19:20.109Z,43.5
2018-04-14T07:20:09.645Z,43.7
2018-04-14T07:20:59.638Z,43.9
2018-04-14T07:21:50.365Z,44.1
2018-04-14T07:22:40.396Z,44.3
2018-04-14T07:23:30.479Z,44.4
2018-04-14T07:24:20.481Z,44.6
2018-04-14T07:25:09.790Z,44.9
2018-04-14T07:25:59.828Z,45.1
2018-04-14T07:26:50.936Z,45.3
2018-04-14T07:27:39.672Z,45.3
2018-04-14T07:28:30.603Z,45.4
2018-04-14T07:29:20.819Z,45.6
2018-04-14T07:30:10.620Z,45.9
2018-04-14T07:31:01.237Z,46.1
2018-04-14T07:31:51.336Z,46.4
2018-04-14T07:32:40.825Z,46.6
2018-04-14T07:33:31.175Z,46.8
2018-04-14T07:34:21.741Z,46.9
2018-04-14T07:35:10.773Z,47.2
2018-04-14T07:36:00.018Z,47.4
2018-04-14T07:36:50.997Z,47.6
2018-04-14T07:37:42.057Z,47.8
2018-04-14T07:38:30.417Z,47.9
2018-04-14T07:39:20.097Z,48.1
2018-04-14T07:40:11.121Z,48.3
2018-04-14T07:41:01.150Z,48.4
2018-04-14T07:41:51.071Z,48.6
2018-04-14T07:42:40.489Z,48.8
2018-04-14T07:43:31.149Z,48.9
2018-04-14T07:44:20.952Z,49.1
2018-04-14T07:45:11.874Z,49.3
2018-04-14T07:46:01.404Z,49.4
2018-04-14T07:46:51.719Z,49.6
2018-04-14T07:47:42.003Z,49.8
2018-04-14T07:48:32.047Z,49.9
2018-04-14T07:49:22.665Z,50.1
2018-04-14T07:50:11.913Z,50.3
2018-04-14T07:51:02.818Z,50.4
2018-04-14T07:51:52.322Z,50.6
2018-04-14T07:52:42.966Z,50.8
2018-04-14T07:53:32.708Z,50.9
2018-04-14T07:54:22.770Z,51.1
2018-04-14T07:55:13.133Z,51.3
2018-04-14T07:56:03.226Z,51.4
2018-04-14T07:56:53.288Z,51.6
2018-04-14T07:57:43.060Z,51.8
2018-04-14T07:58:32.845Z,52
2018-04-14T07:59:23.189Z,52.2
2018-04-14T08:01:03.073Z,52.5
2018-04-14T08:01:53.403Z,52.7
2018-04-14T08:02:43.486Z,52.9
2018-04-14T08:03:33.165Z,53.1
2018-04-14T08:04:23.577Z,53.3
2018-04-14T08:05:13.021Z,53.4
2018-04-14T08:06:03.408Z,53.6
2018-04-14T08:06:53.200Z,53.8
2018-04-14T08:07:44.108Z,53.9
2018-04-14T08:08:33.872Z,53.9
2018-04-14T08:09:23.988Z,54.1
2018-04-14T08:10:13.752Z,54.2
2018-04-14T08:11:03.558Z,54.3
2018-04-14T08:11:54.143Z,54.5
2018-04-14T08:12:43.920Z,54.6
2018-04-14T08:13:34.271Z,54.8
2018-04-14T08:14:24.322Z,54.9
2018-04-14T08:15:13.550Z,55
2018-04-14T08:16:04.486Z,55.1
2018-04-14T08:16:54.238Z,55.1
2018-04-14T08:17:44.919Z,55.2
2018-04-14T08:18:34.952Z,55.3
2018-04-14T08:19:24.460Z,55.5
2018-04-14T08:20:14.745Z,55.5
2018-04-14T08:21:04.850Z,55.3
2018-04-14T08:21:54.378Z,54.8
2018-04-14T08:22:44.973Z,54.6
2018-04-14T08:23:35.047Z,54.6
2018-04-14T08:24:24.488Z,54.7
2018-04-14T08:25:15.444Z,54.9
2018-04-14T08:26:05.269Z,55
2018-04-14T08:26:55.012Z,55.1
2018-04-14T08:27:45.336Z,55.3
2018-04-14T08:28:35.389Z,55.4
2018-04-14T08:29:25.499Z,55.6
2018-04-14T08:30:15.809Z,55.9
2018-04-14T08:31:05.643Z,56.1
2018-04-14T08:31:54.574Z,56.3
2018-04-14T08:32:45.717Z,56.4
2018-04-14T08:33:35.342Z,56.6
2018-04-14T08:34:25.291Z,56.8
2018-04-14T08:35:16.323Z,57
2018-04-14T08:36:06.237Z,57.1
2018-04-14T08:36:54.936Z,57.3
2018-04-14T08:37:45.821Z,57.5
2018-04-14T08:38:36.196Z,57.7
2018-04-14T08:39:25.499Z,57.8
2018-04-14T08:40:16.009Z,58
2018-04-14T08:41:06.083Z,58.2
2018-04-14T08:41:55.574Z,58.3
2018-04-14T08:42:46.483Z,58.5
2018-04-14T08:43:36.008Z,58.7
2018-04-14T08:44:26.675Z,58.9
2018-04-14T08:45:16.190Z,59
2018-04-14T08:46:05.987Z,59.1
2018-04-14T08:46:56.814Z,59.1
2018-04-14T08:47:46.845Z,59.3
2018-04-14T08:48:36.379Z,59.5
2018-04-14T08:49:27.289Z,59.7
2018-04-14T08:50:16.791Z,59.9
2018-04-14T08:51:07.159Z,60.1
2018-04-14T08:51:56.922Z,60.2
2018-04-14T08:52:47.267Z,60.3
2018-04-14T08:53:37.611Z,60.4
2018-04-14T08:54:27.409Z,60.6
2018-04-14T08:55:17.493Z,60.8
2018-04-14T08:56:07.506Z,60.9
2018-04-14T08:56:57.272Z,61.1
2018-04-14T08:57:47.328Z,61.1
2018-04-14T08:58:37.698Z,61.1
2018-04-14T08:59:27.037Z,61.2
2018-04-14T09:00:18.158Z,61.3
2018-04-14T09:01:07.918Z,61.5
2018-04-14T09:01:57.977Z,61.7
2018-04-14T09:02:48.325Z,61.8
2018-04-14T09:03:37.807Z,61.9
2018-04-14T09:04:26.925Z,62.1
2018-04-14T09:05:17.208Z,62.3
2018-04-14T09:06:08.286Z,62.4
2018-04-14T09:06:58.325Z,62.6
2018-04-14T09:07:48.417Z,62.8
2018-04-14T09:08:37.927Z,62.9
2018-04-14T09:09:28.282Z,62.8
2018-04-14T09:10:18.329Z,62.5
2018-04-14T09:11:08.707Z,62.3
2018-04-14T09:11:58.763Z,62.2
2018-04-14T09:12:49.052Z,62.3
2018-04-14T09:13:38.567Z,62.4
2018-04-14T09:14:28.948Z,62.5
2018-04-14T09:15:19.295Z,62.6
2018-04-14T09:16:09.545Z,62.8
2018-04-14T09:16:58.865Z,62.8
2018-04-14T09:17:49.191Z,62.9
2018-04-14T09:18:38.685Z,63.1
2018-04-14T09:19:28.007Z,63.3
2018-04-14T09:20:19.336Z,63.4
2018-04-14T09:21:09.176Z,63.5
2018-04-14T09:21:59.238Z,63.6
2018-04-14T09:22:48.541Z,63.7
2018-04-14T09:23:39.661Z,63.9
2018-04-14T09:24:29.705Z,64
2018-04-14T09:25:19.462Z,64.1
2018-04-14T09:26:09.852Z,64.3
2018-04-14T09:26:59.919Z,64.4
2018-04-14T09:27:49.978Z,64.6
2018-04-14T09:28:40.097Z,64.7
2018-04-14T09:29:29.826Z,64.9
2018-04-14T09:30:20.144Z,65
2018-04-14T09:31:10.262Z,65.2
2018-04-14T09:32:00.029Z,65.3
2018-04-14T09:32:50.444Z,65.3
2018-04-14T09:33:39.891Z,65.4
2018-04-14T09:34:30.809Z,65.6
2018-04-14T09:35:20.887Z,65.7
2018-04-14T09:36:10.905Z,65.8
2018-04-14T09:37:00.984Z,65.9
2018-04-14T09:37:50.777Z,66.1
2018-04-14T09:38:40.552Z,66.2
2018-04-14T09:39:30.332Z,66.3
2018-04-14T09:40:20.703Z,66.4
2018-04-14T09:41:11.016Z,66.6
2018-04-14T09:42:01.140Z,66.6
2018-04-14T09:42:51.244Z,66.8
2018-04-14T09:43:40.372Z,66.8
2018-04-14T09:44:31.050Z,66.9
2018-04-14T09:45:21.067Z,66.9
2018-04-14T09:46:11.104Z,67
2018-04-14T09:47:01.756Z,67.1
2018-04-14T09:47:51.805Z,67.3
2018-04-14T09:48:41.048Z,67.4
2018-04-14T09:49:31.361Z,67.5
2018-04-14T09:50:21.750Z,67.6
2018-04-14T09:51:11.590Z,67.7
2018-04-14T09:52:01.297Z,67.8
2018-04-14T09:52:51.641Z,67.8
2018-04-14T09:53:41.410Z,67.9
2018-04-14T09:54:30.063Z,67.9
2018-04-14T09:55:21.549Z,68.1
2018-04-14T09:56:11.944Z,68.1
2018-04-14T09:57:01.674Z,68.2
2018-04-14T09:57:52.610Z,68.3
2018-04-14T09:58:42.649Z,68.3
2018-04-14T09:59:31.903Z,68.3
2018-04-14T10:00:22.243Z,68.4
2018-04-14T10:01:12.869Z,68.5
2018-04-14T10:02:02.942Z,68.6
2018-04-14T10:02:52.475Z,68.6
2018-04-14T10:03:42.766Z,68.7
2018-04-14T10:04:32.566Z,68.8
2018-04-14T10:05:22.353Z,68.9
2018-04-14T10:06:12.675Z,69
2018-04-14T10:07:03.307Z,69.1
2018-04-14T10:07:52.926Z,69.1
2018-04-14T10:08:43.164Z,69.2
2018-04-14T10:09:33.204Z,69.3
2018-04-14T10:10:23.369Z,69.4
2018-04-14T10:11:12.809Z,69.4
2018-04-14T10:12:03.706Z,69.6
2018-04-14T10:12:53.203Z,69.6
2018-04-14T10:13:43.256Z,69.8
2018-04-14T10:14:33.088Z,69.9
2018-04-14T10:15:23.368Z,70
2018-04-14T10:16:13.973Z,70.1
2018-04-14T10:17:03.253Z,70.2
2018-04-14T10:17:53.592Z,70.3
2018-04-14T10:18:43.677Z,70.3
2018-04-14T10:19:33.165Z,70.4
2018-04-14T10:20:23.750Z,70.4
2018-04-14T10:21:14.420Z,70.5
2018-04-14T10:22:04.160Z,70.6
2018-04-14T10:22:53.690Z,70.8
2018-04-14T10:23:44.574Z,70.8
2018-04-14T10:24:34.651Z,70.9
2018-04-14T10:25:24.453Z,71
2018-04-14T10:26:14.821Z,71.1
2018-04-14T10:27:05.241Z,71.2
2018-04-14T10:27:54.067Z,71.3
2018-04-14T10:28:44.499Z,71.3
2018-04-14T10:29:34.219Z,71.4
2018-04-14T10:30:25.218Z,71.5
2018-04-14T10:31:15.211Z,71.6
2018-04-14T10:32:04.410Z,71.6
2018-04-14T10:32:54.306Z,71.7
2018-04-14T10:33:45.115Z,71.8
2018-04-14T10:34:35.451Z,71.8
2018-04-14T10:35:25.241Z,71.9
2018-04-14T10:36:15.300Z,72
2018-04-14T10:37:05.338Z,72.1
2018-04-14T10:37:56.984Z,72.1
2018-04-14T10:38:44.905Z,72.2
2018-04-14T10:39:35.267Z,72.3
2018-04-14T10:40:25.322Z,72.3
2018-04-14T10:41:15.385Z,72.4
2018-04-14T10:42:05.763Z,72.4
2018-04-14T10:42:55.528Z,72.4
2018-04-14T10:43:46.181Z,72.5
2018-04-14T10:44:35.705Z,72.5
2018-04-14T10:45:26.052Z,72.6
2018-04-14T10:46:16.355Z,72.6
2018-04-14T10:47:05.611Z,72.7
2018-04-14T10:47:55.983Z,72.8
2018-04-14T10:48:45.681Z,72.8
2018-04-14T10:49:36.346Z,72.8
2018-04-14T10:50:26.111Z,72.8
2018-04-14T10:51:15.426Z,72.8
2018-04-14T10:52:06.521Z,72.9
2018-04-14T10:52:56.313Z,72.9
2018-04-14T10:53:45.836Z,73
2018-04-14T10:54:35.291Z,73.1
2018-04-14T10:55:26.540Z,73.1
2018-04-14T10:56:16.565Z,73.2
2018-04-14T10:57:06.624Z,73.3
2018-04-14T10:57:56.698Z,73.3
2018-04-14T10:58:46.763Z,73.4
2018-04-14T10:59:37.147Z,73.4
2018-04-14T11:00:26.888Z,73.4
2018-04-14T11:01:16.501Z,73.4
2018-04-14T11:02:07.333Z,73.5
2018-04-14T11:02:56.926Z,73.6
2018-04-14T11:03:47.196Z,73.6
2018-04-14T11:04:37.763Z,73.7
2018-04-14T11:05:27.824Z,73.8
2018-04-14T11:06:16.488Z,73.8
2018-04-14T11:07:07.370Z,73.8
2018-04-14T11:07:58.031Z,73.8
2018-04-14T11:08:48.121Z,73.9
2018-04-14T11:09:37.058Z,73.9
2018-04-14T11:10:27.991Z,73.9
2018-04-14T11:11:18.044Z,74
2018-04-14T11:12:08.111Z,74.1
2018-04-14T11:12:58.440Z,74.1
2018-04-14T11:13:47.935Z,74.1
2018-04-14T11:14:38.005Z,74.1
2018-04-14T11:15:28.065Z,74.1
2018-04-14T11:16:18.118Z,74.2
2018-04-14T11:17:08.492Z,74.3
2018-04-14T11:17:58.553Z,74.4
2018-04-14T11:18:48.880Z,74.4
2018-04-14T11:19:37.828Z,74.5
2018-04-14T11:20:28.778Z,74.5
2018-04-14T11:21:17.723Z,74.5
2018-04-14T11:22:08.590Z,74.5
2018-04-14T11:22:58.920Z,74.6
2018-04-14T11:23:48.702Z,74.6
2018-04-14T11:24:38.806Z,74.6
2018-04-14T11:25:28.846Z,74.7
2018-04-14T11:26:18.617Z,74.8
2018-04-14T11:27:09.547Z,74.8
2018-04-14T11:27:59.592Z,74.9
2018-04-14T11:28:48.839Z,74.9
2018-04-14T11:29:39.464Z,74.9
2018-04-14T11:30:29.870Z,74.9
2018-04-14T11:31:20.125Z,75
2018-04-14T11:32:09.716Z,75
2018-04-14T11:32:58.841Z,75
2018-04-14T11:33:50.061Z,75
2018-04-14T11:34:39.584Z,75
2018-04-14T11:35:29.416Z,74.9
2018-04-14T11:36:19.403Z,74.9
2018-04-14T11:37:09.539Z,74.9
2018-04-14T11:38:00.197Z,74.9
2018-04-14T11:38:50.161Z,75
2018-04-14T11:39:55.169Z,75.1
2018-04-14T11:40:30.071Z,75.1
2018-04-14T11:41:20.368Z,75.1
2018-04-14T11:42:10.425Z,75.2
2018-04-14T11:42:59.964Z,75.1
2018-04-14T11:43:50.802Z,75.2
2018-04-14T11:44:40.903Z,75.3
2018-04-14T11:45:29.855Z,75.4
2018-04-14T11:46:20.772Z,75.4
2018-04-14T11:47:09.985Z,75.4
2018-04-14T11:48:01.155Z,75.5
2018-04-14T11:48:51.238Z,75.6
2018-04-14T11:49:41.028Z,75.6
2018-04-14T11:50:30.811Z,75.6
2018-04-14T11:51:20.875Z,75.7
2018-04-14T11:52:11.217Z,75.6
2018-04-14T11:53:01.215Z,75.6
2018-04-14T11:53:51.058Z,75.5
2018-04-14T11:54:41.107Z,75.5
2018-04-14T11:55:31.452Z,75.5
2018-04-14T11:56:21.823Z,75.6
2018-04-14T11:57:11.659Z,75.6
2018-04-14T11:58:01.658Z,75.7